sensor_id;sensor_type;location;lat;lon;timestamp;P1;durP1;ratioP1;P2;durP2;ratioP2
70927;SDS011;58587;53.034;18.576;2024-01-30T00:00:37;48.27;;;18.80;;
70927;SDS011;58587;53.034;18.576;2024-01-30T00:03:03;53.13;;;21.37;;
70927;SDS011;58587;53.034;18.576;2024-01-30T00:05:28;50.95;;;21.75;;
70927;SDS011;58587;53.034;18.576;2024-01-30T00:07:53;57.30;;;21.00;;
70927;SDS011;58587;53.034;18.576;2024-01-30T00:10:19;52.40;;;21.03;;
70927;SDS011;58587;53.034;18.576;2024-01-30T00:12:44;62.47;;;24.57;;
70927;SDS011;58587;53.034;18.576;2024-01-30T00:15:09;62.73;;;24.00;;
70927;SDS011;58587;53.034;18.576;2024-01-30T00:17:36;53.85;;;21.20;;
70927;SDS011;58587;53.034;18.576;2024-01-30T00:20:02;51.97;;;21.73;;
70927;SDS011;58587;53.034;18.576;2024-01-30T00:22:30;54.15;;;21.15;;
70927;SDS011;58587;53.034;18.576;2024-01-30T00:24:55;44.33;;;18.40;;
70927;SDS011;58587;53.034;18.576;2024-01-30T00:27:21;45.33;;;18.42;;
70927;SDS011;58587;53.034;18.576;2024-01-30T00:29:46;40.58;;;17.40;;
70927;SDS011;58587;53.034;18.576;2024-01-30T00:32:11;39.20;;;16.97;;
70927;SDS011;58587;53.034;18.576;2024-01-30T00:34:37;44.73;;;17.63;;
70927;SDS011;58587;53.034;18.576;2024-01-30T00:37:02;49.73;;;20.00;;
70927;SDS011;58587;53.034;18.576;2024-01-30T00:39:27;50.50;;;20.10;;
70927;SDS011;58587;53.034;18.576;2024-01-30T00:41:53;45.63;;;19.20;;
70927;SDS011;58587;53.034;18.576;2024-01-30T00:44:18;49.60;;;19.50;;
70927;SDS011;58587;53.034;18.576;2024-01-30T00:46:43;49.87;;;20.10;;
70927;SDS011;58587;53.034;18.576;2024-01-30T00:49:08;46.87;;;17.70;;
70927;SDS011;58587;53.034;18.576;2024-01-30T00:51:34;45.95;;;18.30;;
70927;SDS011;58587;53.034;18.576;2024-01-30T00:53:59;40.23;;;18.27;;
70927;SDS011;58587;53.034;18.576;2024-01-30T00:56:24;36.13;;;15.00;;
70927;SDS011;58587;53.034;18.576;2024-01-30T00:58:50;36.97;;;15.47;;
70927;SDS011;58587;53.034;18.576;2024-01-30T01:01:15;40.50;;;17.13;;
70927;SDS011;58587;53.034;18.576;2024-01-30T01:03:40;42.80;;;18.10;;
70927;SDS011;58587;53.034;18.576;2024-01-30T01:06:08;44.80;;;17.08;;
70927;SDS011;58587;53.034;18.576;2024-01-30T01:08:33;41.87;;;16.13;;
70927;SDS011;58587;53.034;18.576;2024-01-30T01:10:59;40.53;;;16.33;;
70927;SDS011;58587;53.034;18.576;2024-01-30T01:13:24;37.33;;;16.47;;
70927;SDS011;58587;53.034;18.576;2024-01-30T01:15:49;36.97;;;15.63;;
70927;SDS011;58587;53.034;18.576;2024-01-30T01:18:14;33.67;;;15.00;;
70927;SDS011;58587;53.034;18.576;2024-01-30T01:20:40;36.50;;;16.38;;
70927;SDS011;58587;53.034;18.576;2024-01-30T01:23:06;38.30;;;15.83;;
70927;SDS011;58587;53.034;18.576;2024-01-30T01:25:31;37.43;;;14.30;;
70927;SDS011;58587;53.034;18.576;2024-01-30T01:27:56;37.70;;;15.03;;
70927;SDS011;58587;53.034;18.576;2024-01-30T01:30:22;31.53;;;13.10;;
70927;SDS011;58587;53.034;18.576;2024-01-30T01:32:50;32.22;;;14.52;;
70927;SDS011;58587;53.034;18.576;2024-01-30T01:35:23;33.80;;;14.53;;
70927;SDS011;58587;53.034;18.576;2024-01-30T01:37:52;41.05;;;16.05;;
70927;SDS011;58587;53.034;18.576;2024-01-30T01:40:26;49.30;;;17.92;;
70927;SDS011;58587;53.034;18.576;2024-01-30T01:42:52;46.55;;;16.00;;
70927;SDS011;58587;53.034;18.576;2024-01-30T01:45:19;42.35;;;15.27;;
70927;SDS011;58587;53.034;18.576;2024-01-30T01:47:45;38.20;;;15.90;;
70927;SDS011;58587;53.034;18.576;2024-01-30T01:50:13;48.65;;;15.90;;
70927;SDS011;58587;53.034;18.576;2024-01-30T01:52:43;39.63;;;15.43;;
70927;SDS011;58587;53.034;18.576;2024-01-30T01:55:10;35.97;;;14.88;;
70927;SDS011;58587;53.034;18.576;2024-01-30T01:57:37;39.10;;;14.38;;
70927;SDS011;58587;53.034;18.576;2024-01-30T02:00:03;32.47;;;14.50;;
70927;SDS011;58587;53.034;18.576;2024-01-30T02:02:30;38.83;;;14.13;;
70927;SDS011;58587;53.034;18.576;2024-01-30T02:04:57;39.90;;;14.57;;
70927;SDS011;58587;53.034;18.576;2024-01-30T02:07:23;41.60;;;15.87;;
70927;SDS011;58587;53.034;18.576;2024-01-30T02:09:49;42.88;;;15.32;;
70927;SDS011;58587;53.034;18.576;2024-01-30T02:12:14;41.77;;;15.67;;
70927;SDS011;58587;53.034;18.576;2024-01-30T02:14:46;39.97;;;15.00;;
70927;SDS011;58587;53.034;18.576;2024-01-30T02:17:12;35.55;;;14.82;;
70927;SDS011;58587;53.034;18.576;2024-01-30T02:19:38;39.95;;;15.80;;
70927;SDS011;58587;53.034;18.576;2024-01-30T02:22:03;34.83;;;14.60;;
70927;SDS011;58587;53.034;18.576;2024-01-30T02:24:29;40.53;;;14.75;;
70927;SDS011;58587;53.034;18.576;2024-01-30T02:26:54;39.93;;;15.47;;
70927;SDS011;58587;53.034;18.576;2024-01-30T02:29:20;39.60;;;16.27;;
70927;SDS011;58587;53.034;18.576;2024-01-30T02:31:45;39.47;;;15.00;;
70927;SDS011;58587;53.034;18.576;2024-01-30T02:34:11;36.85;;;16.90;;
70927;SDS011;58587;53.034;18.576;2024-01-30T02:36:36;41.80;;;15.60;;
70927;SDS011;58587;53.034;18.576;2024-01-30T02:39:02;38.30;;;15.83;;
70927;SDS011;58587;53.034;18.576;2024-01-30T02:41:28;39.20;;;16.27;;
70927;SDS011;58587;53.034;18.576;2024-01-30T02:43:53;35.77;;;15.20;;
70927;SDS011;58587;53.034;18.576;2024-01-30T02:46:19;42.27;;;16.47;;
70927;SDS011;58587;53.034;18.576;2024-01-30T02:48:44;42.07;;;16.07;;
70927;SDS011;58587;53.034;18.576;2024-01-30T02:51:09;41.97;;;16.77;;
70927;SDS011;58587;53.034;18.576;2024-01-30T02:53:35;41.63;;;17.80;;
70927;SDS011;58587;53.034;18.576;2024-01-30T02:56:01;40.17;;;17.45;;
70927;SDS011;58587;53.034;18.576;2024-01-30T02:58:27;42.03;;;18.30;;
70927;SDS011;58587;53.034;18.576;2024-01-30T03:00:52;43.83;;;17.02;;
70927;SDS011;58587;53.034;18.576;2024-01-30T03:03:18;41.97;;;16.48;;
70927;SDS011;58587;53.034;18.576;2024-01-30T03:05:43;39.37;;;17.30;;
70927;SDS011;58587;53.034;18.576;2024-01-30T03:08:08;36.13;;;16.83;;
70927;SDS011;58587;53.034;18.576;2024-01-30T03:10:34;38.27;;;17.80;;
70927;SDS011;58587;53.034;18.576;2024-01-30T03:12:59;41.37;;;17.93;;
70927;SDS011;58587;53.034;18.576;2024-01-30T03:15:24;39.07;;;17.07;;
70927;SDS011;58587;53.034;18.576;2024-01-30T03:17:50;37.13;;;16.10;;
70927;SDS011;58587;53.034;18.576;2024-01-30T03:20:15;39.37;;;17.00;;
70927;SDS011;58587;53.034;18.576;2024-01-30T03:22:40;42.87;;;17.50;;
70927;SDS011;58587;53.034;18.576;2024-01-30T03:25:06;40.30;;;16.33;;
70927;SDS011;58587;53.034;18.576;2024-01-30T03:27:31;39.30;;;16.17;;
70927;SDS011;58587;53.034;18.576;2024-01-30T03:29:57;37.50;;;16.20;;
70927;SDS011;58587;53.034;18.576;2024-01-30T03:32:22;39.53;;;16.67;;
70927;SDS011;58587;53.034;18.576;2024-01-30T03:34:47;36.77;;;16.63;;
70927;SDS011;58587;53.034;18.576;2024-01-30T03:37:13;43.72;;;17.67;;
70927;SDS011;58587;53.034;18.576;2024-01-30T03:39:38;38.60;;;16.50;;
70927;SDS011;58587;53.034;18.576;2024-01-30T03:42:04;40.73;;;17.03;;
70927;SDS011;58587;53.034;18.576;2024-01-30T03:44:29;41.57;;;15.83;;
70927;SDS011;58587;53.034;18.576;2024-01-30T03:46:54;41.67;;;15.70;;
70927;SDS011;58587;53.034;18.576;2024-01-30T03:49:19;36.57;;;15.37;;
70927;SDS011;58587;53.034;18.576;2024-01-30T03:51:45;39.67;;;15.63;;
70927;SDS011;58587;53.034;18.576;2024-01-30T03:54:12;39.72;;;16.42;;
70927;SDS011;58587;53.034;18.576;2024-01-30T03:56:37;41.23;;;17.17;;
70927;SDS011;58587;53.034;18.576;2024-01-30T03:59:03;53.60;;;21.33;;
70927;SDS011;58587;53.034;18.576;2024-01-30T04:01:28;60.67;;;24.63;;
70927;SDS011;58587;53.034;18.576;2024-01-30T04:03:53;66.00;;;25.43;;
70927;SDS011;58587;53.034;18.576;2024-01-30T04:06:19;65.70;;;24.80;;
70927;SDS011;58587;53.034;18.576;2024-01-30T04:08:44;68.35;;;26.52;;
70927;SDS011;58587;53.034;18.576;2024-01-30T04:11:09;67.97;;;23.03;;
70927;SDS011;58587;53.034;18.576;2024-01-30T04:13:35;65.40;;;24.13;;
70927;SDS011;58587;53.034;18.576;2024-01-30T04:16:01;52.03;;;20.40;;
70927;SDS011;58587;53.034;18.576;2024-01-30T04:18:27;51.97;;;19.95;;
70927;SDS011;58587;53.034;18.576;2024-01-30T04:20:53;51.35;;;19.27;;
70927;SDS011;58587;53.034;18.576;2024-01-30T04:23:18;51.07;;;19.33;;
70927;SDS011;58587;53.034;18.576;2024-01-30T04:25:43;49.43;;;19.43;;
70927;SDS011;58587;53.034;18.576;2024-01-30T04:28:09;53.50;;;20.57;;
70927;SDS011;58587;53.034;18.576;2024-01-30T04:30:37;57.55;;;21.25;;
70927;SDS011;58587;53.034;18.576;2024-01-30T04:33:02;51.17;;;20.77;;
70927;SDS011;58587;53.034;18.576;2024-01-30T04:35:28;44.00;;;19.90;;
70927;SDS011;58587;53.034;18.576;2024-01-30T04:37:53;47.93;;;19.27;;
70927;SDS011;58587;53.034;18.576;2024-01-30T04:40:19;44.00;;;18.40;;
70927;SDS011;58587;53.034;18.576;2024-01-30T04:42:45;38.67;;;16.83;;
70927;SDS011;58587;53.034;18.576;2024-01-30T04:45:11;40.27;;;17.07;;
70927;SDS011;58587;53.034;18.576;2024-01-30T04:47:36;47.53;;;17.92;;
70927;SDS011;58587;53.034;18.576;2024-01-30T04:50:02;38.50;;;15.77;;
70927;SDS011;58587;53.034;18.576;2024-01-30T04:52:29;37.50;;;16.53;;
70927;SDS011;58587;53.034;18.576;2024-01-30T04:54:55;39.55;;;16.35;;
70927;SDS011;58587;53.034;18.576;2024-01-30T04:57:20;42.27;;;16.60;;
70927;SDS011;58587;53.034;18.576;2024-01-30T04:59:45;42.47;;;17.37;;
70927;SDS011;58587;53.034;18.576;2024-01-30T05:02:10;40.83;;;16.97;;
70927;SDS011;58587;53.034;18.576;2024-01-30T05:04:36;51.00;;;20.13;;
70927;SDS011;58587;53.034;18.576;2024-01-30T05:07:01;47.40;;;18.93;;
70927;SDS011;58587;53.034;18.576;2024-01-30T05:09:26;52.97;;;20.27;;
70927;SDS011;58587;53.034;18.576;2024-01-30T05:11:52;57.33;;;22.53;;
70927;SDS011;58587;53.034;18.576;2024-01-30T05:14:17;59.10;;;23.73;;
70927;SDS011;58587;53.034;18.576;2024-01-30T05:16:42;55.70;;;22.40;;
70927;SDS011;58587;53.034;18.576;2024-01-30T05:19:11;54.97;;;21.10;;
70927;SDS011;58587;53.034;18.576;2024-01-30T05:21:37;70.93;;;25.92;;
70927;SDS011;58587;53.034;18.576;2024-01-30T05:24:02;84.67;;;31.03;;
70927;SDS011;58587;53.034;18.576;2024-01-30T05:26:27;104.03;;;35.67;;
70927;SDS011;58587;53.034;18.576;2024-01-30T05:28:53;105.40;;;39.00;;
70927;SDS011;58587;53.034;18.576;2024-01-30T05:31:18;103.90;;;39.40;;
70927;SDS011;58587;53.034;18.576;2024-01-30T05:33:44;85.90;;;34.83;;
70927;SDS011;58587;53.034;18.576;2024-01-30T05:36:11;68.67;;;26.37;;
70927;SDS011;58587;53.034;18.576;2024-01-30T05:38:37;69.77;;;27.37;;
70927;SDS011;58587;53.034;18.576;2024-01-30T05:41:02;51.20;;;21.73;;
70927;SDS011;58587;53.034;18.576;2024-01-30T05:43:27;53.17;;;21.60;;
70927;SDS011;58587;53.034;18.576;2024-01-30T05:45:52;46.47;;;19.60;;
70927;SDS011;58587;53.034;18.576;2024-01-30T05:48:18;42.93;;;18.40;;
70927;SDS011;58587;53.034;18.576;2024-01-30T05:50:43;54.03;;;19.93;;
70927;SDS011;58587;53.034;18.576;2024-01-30T05:53:08;59.40;;;22.97;;
70927;SDS011;58587;53.034;18.576;2024-01-30T05:55:34;62.53;;;23.43;;
70927;SDS011;58587;53.034;18.576;2024-01-30T05:57:59;59.97;;;24.07;;
70927;SDS011;58587;53.034;18.576;2024-01-30T06:00:24;56.20;;;24.40;;
70927;SDS011;58587;53.034;18.576;2024-01-30T06:02:50;58.10;;;23.17;;
70927;SDS011;58587;53.034;18.576;2024-01-30T06:05:15;53.27;;;22.10;;
70927;SDS011;58587;53.034;18.576;2024-01-30T06:07:40;54.63;;;22.03;;
70927;SDS011;58587;53.034;18.576;2024-01-30T06:10:06;48.17;;;20.10;;
70927;SDS011;58587;53.034;18.576;2024-01-30T06:12:32;46.13;;;19.95;;
70927;SDS011;58587;53.034;18.576;2024-01-30T06:14:57;47.25;;;19.90;;
70927;SDS011;58587;53.034;18.576;2024-01-30T06:17:25;45.73;;;20.43;;
70927;SDS011;58587;53.034;18.576;2024-01-30T06:19:51;42.67;;;17.73;;
70927;SDS011;58587;53.034;18.576;2024-01-30T06:22:16;42.97;;;17.45;;
70927;SDS011;58587;53.034;18.576;2024-01-30T06:24:41;42.33;;;17.97;;
70927;SDS011;58587;53.034;18.576;2024-01-30T06:27:09;51.08;;;18.40;;
70927;SDS011;58587;53.034;18.576;2024-01-30T06:29:35;45.77;;;18.93;;
70927;SDS011;58587;53.034;18.576;2024-01-30T06:32:00;42.00;;;17.50;;
70927;SDS011;58587;53.034;18.576;2024-01-30T06:34:25;39.17;;;15.53;;
70927;SDS011;58587;53.034;18.576;2024-01-30T06:36:51;36.93;;;15.13;;
70927;SDS011;58587;53.034;18.576;2024-01-30T06:39:16;38.30;;;16.17;;
70927;SDS011;58587;53.034;18.576;2024-01-30T06:41:42;40.27;;;17.13;;
70927;SDS011;58587;53.034;18.576;2024-01-30T06:44:07;51.40;;;21.13;;
70927;SDS011;58587;53.034;18.576;2024-01-30T06:46:33;58.37;;;22.20;;
70927;SDS011;58587;53.034;18.576;2024-01-30T06:48:59;56.78;;;22.98;;
70927;SDS011;58587;53.034;18.576;2024-01-30T06:51:24;49.03;;;20.73;;
70927;SDS011;58587;53.034;18.576;2024-01-30T06:53:49;46.03;;;20.17;;
70927;SDS011;58587;53.034;18.576;2024-01-30T06:56:15;44.33;;;19.00;;
70927;SDS011;58587;53.034;18.576;2024-01-30T06:58:41;49.50;;;18.75;;
70927;SDS011;58587;53.034;18.576;2024-01-30T07:01:06;66.23;;;25.73;;
70927;SDS011;58587;53.034;18.576;2024-01-30T07:03:32;73.93;;;27.07;;
70927;SDS011;58587;53.034;18.576;2024-01-30T07:05:57;72.97;;;27.00;;
70927;SDS011;58587;53.034;18.576;2024-01-30T07:08:23;74.95;;;27.63;;
70927;SDS011;58587;53.034;18.576;2024-01-30T07:10:48;64.50;;;23.25;;
70927;SDS011;58587;53.034;18.576;2024-01-30T07:13:13;47.43;;;19.87;;
70927;SDS011;58587;53.034;18.576;2024-01-30T07:15:41;45.73;;;18.67;;
70927;SDS011;58587;53.034;18.576;2024-01-30T07:18:07;44.83;;;17.58;;
70927;SDS011;58587;53.034;18.576;2024-01-30T07:20:32;42.97;;;17.10;;
70927;SDS011;58587;53.034;18.576;2024-01-30T07:22:58;42.23;;;16.70;;
70927;SDS011;58587;53.034;18.576;2024-01-30T07:25:23;51.57;;;17.83;;
70927;SDS011;58587;53.034;18.576;2024-01-30T07:27:52;42.17;;;16.60;;
70927;SDS011;58587;53.034;18.576;2024-01-30T07:30:17;35.78;;;15.60;;
70927;SDS011;58587;53.034;18.576;2024-01-30T07:32:43;37.73;;;16.43;;
70927;SDS011;58587;53.034;18.576;2024-01-30T07:35:09;35.85;;;15.20;;
70927;SDS011;58587;53.034;18.576;2024-01-30T07:37:34;40.23;;;15.57;;
70927;SDS011;58587;53.034;18.576;2024-01-30T07:39:59;39.03;;;15.93;;
70927;SDS011;58587;53.034;18.576;2024-01-30T07:42:26;32.72;;;14.98;;
70927;SDS011;58587;53.034;18.576;2024-01-30T07:44:51;35.83;;;15.53;;
70927;SDS011;58587;53.034;18.576;2024-01-30T07:47:17;36.13;;;16.10;;
70927;SDS011;58587;53.034;18.576;2024-01-30T07:49:42;31.27;;;14.03;;
70927;SDS011;58587;53.034;18.576;2024-01-30T07:52:07;42.03;;;15.70;;
70927;SDS011;58587;53.034;18.576;2024-01-30T07:54:32;32.10;;;13.97;;
70927;SDS011;58587;53.034;18.576;2024-01-30T07:56:58;33.05;;;14.25;;
70927;SDS011;58587;53.034;18.576;2024-01-30T07:59:25;31.63;;;13.70;;
70927;SDS011;58587;53.034;18.576;2024-01-30T08:01:50;31.30;;;14.25;;
70927;SDS011;58587;53.034;18.576;2024-01-30T08:04:15;34.15;;;12.98;;
70927;SDS011;58587;53.034;18.576;2024-01-30T08:06:43;29.23;;;12.07;;
70927;SDS011;58587;53.034;18.576;2024-01-30T08:09:08;31.43;;;13.83;;
70927;SDS011;58587;53.034;18.576;2024-01-30T08:11:33;30.05;;;13.63;;
70927;SDS011;58587;53.034;18.576;2024-01-30T08:13:59;31.33;;;13.17;;
70927;SDS011;58587;53.034;18.576;2024-01-30T08:16:24;32.33;;;13.27;;
70927;SDS011;58587;53.034;18.576;2024-01-30T08:18:49;31.27;;;13.83;;
70927;SDS011;58587;53.034;18.576;2024-01-30T08:21:15;29.30;;;13.10;;
70927;SDS011;58587;53.034;18.576;2024-01-30T08:23:40;30.40;;;12.27;;
70927;SDS011;58587;53.034;18.576;2024-01-30T08:26:05;34.53;;;13.80;;
70927;SDS011;58587;53.034;18.576;2024-01-30T08:28:31;31.70;;;13.17;;
70927;SDS011;58587;53.034;18.576;2024-01-30T08:30:56;29.53;;;12.63;;
70927;SDS011;58587;53.034;18.576;2024-01-30T08:33:21;26.40;;;12.20;;
70927;SDS011;58587;53.034;18.576;2024-01-30T08:35:47;29.10;;;13.23;;
70927;SDS011;58587;53.034;18.576;2024-01-30T08:38:12;27.90;;;13.87;;
70927;SDS011;58587;53.034;18.576;2024-01-30T08:40:38;25.93;;;12.27;;
70927;SDS011;58587;53.034;18.576;2024-01-30T08:43:03;28.07;;;12.67;;
70927;SDS011;58587;53.034;18.576;2024-01-30T08:45:29;33.30;;;13.93;;
70927;SDS011;58587;53.034;18.576;2024-01-30T08:47:55;26.13;;;12.10;;
70927;SDS011;58587;53.034;18.576;2024-01-30T08:50:20;29.55;;;12.85;;
70927;SDS011;58587;53.034;18.576;2024-01-30T08:52:46;27.47;;;12.80;;
70927;SDS011;58587;53.034;18.576;2024-01-30T08:55:11;30.97;;;14.00;;
70927;SDS011;58587;53.034;18.576;2024-01-30T08:57:37;30.47;;;13.77;;
70927;SDS011;58587;53.034;18.576;2024-01-30T09:00:02;30.47;;;15.03;;
70927;SDS011;58587;53.034;18.576;2024-01-30T09:02:31;31.02;;;14.07;;
70927;SDS011;58587;53.034;18.576;2024-01-30T09:04:57;31.08;;;13.52;;
70927;SDS011;58587;53.034;18.576;2024-01-30T09:07:22;25.92;;;12.90;;
70927;SDS011;58587;53.034;18.576;2024-01-30T09:09:47;25.70;;;11.80;;
70927;SDS011;58587;53.034;18.576;2024-01-30T09:12:14;26.80;;;13.43;;
70927;SDS011;58587;53.034;18.576;2024-01-30T09:14:39;35.15;;;13.90;;
70927;SDS011;58587;53.034;18.576;2024-01-30T09:17:05;27.02;;;12.93;;
70927;SDS011;58587;53.034;18.576;2024-01-30T09:19:31;27.67;;;13.77;;
70927;SDS011;58587;53.034;18.576;2024-01-30T09:21:56;30.50;;;13.50;;
70927;SDS011;58587;53.034;18.576;2024-01-30T09:24:22;30.80;;;14.37;;
70927;SDS011;58587;53.034;18.576;2024-01-30T09:26:47;29.60;;;14.00;;
70927;SDS011;58587;53.034;18.576;2024-01-30T09:29:12;54.87;;;23.13;;
70927;SDS011;58587;53.034;18.576;2024-01-30T09:31:38;37.28;;;17.20;;
70927;SDS011;58587;53.034;18.576;2024-01-30T09:34:03;31.50;;;14.10;;
70927;SDS011;58587;53.034;18.576;2024-01-30T09:36:28;153.40;;;59.33;;
70927;SDS011;58587;53.034;18.576;2024-01-30T09:38:53;46.97;;;20.37;;
70927;SDS011;58587;53.034;18.576;2024-01-30T09:41:19;32.50;;;14.37;;
70927;SDS011;58587;53.034;18.576;2024-01-30T09:43:47;34.50;;;15.75;;
70927;SDS011;58587;53.034;18.576;2024-01-30T09:46:14;35.05;;;16.45;;
70927;SDS011;58587;53.034;18.576;2024-01-30T09:48:41;29.73;;;15.20;;
70927;SDS011;58587;53.034;18.576;2024-01-30T09:51:08;37.05;;;16.88;;
70927;SDS011;58587;53.034;18.576;2024-01-30T09:53:34;32.63;;;15.35;;
70927;SDS011;58587;53.034;18.576;2024-01-30T09:56:01;29.25;;;14.52;;
70927;SDS011;58587;53.034;18.576;2024-01-30T09:58:27;32.80;;;19.65;;
70927;SDS011;58587;53.034;18.576;2024-01-30T10:00:52;36.67;;;18.10;;
70927;SDS011;58587;53.034;18.576;2024-01-30T10:03:18;29.80;;;15.82;;
70927;SDS011;58587;53.034;18.576;2024-01-30T10:05:45;35.33;;;16.87;;
70927;SDS011;58587;53.034;18.576;2024-01-30T10:08:17;27.55;;;12.52;;
70927;SDS011;58587;53.034;18.576;2024-01-30T10:10:45;25.58;;;12.40;;
70927;SDS011;58587;53.034;18.576;2024-01-30T10:13:11;29.80;;;12.87;;
70927;SDS011;58587;53.034;18.576;2024-01-30T10:15:37;26.92;;;11.90;;
70927;SDS011;58587;53.034;18.576;2024-01-30T10:18:03;22.07;;;10.70;;
70927;SDS011;58587;53.034;18.576;2024-01-30T10:20:31;24.38;;;12.30;;
70927;SDS011;58587;53.034;18.576;2024-01-30T10:22:57;45.17;;;24.55;;
70927;SDS011;58587;53.034;18.576;2024-01-30T10:25:23;33.53;;;17.87;;
70927;SDS011;58587;53.034;18.576;2024-01-30T10:27:52;25.15;;;11.40;;
70927;SDS011;58587;53.034;18.576;2024-01-30T10:30:19;41.28;;;25.23;;
70927;SDS011;58587;53.034;18.576;2024-01-30T10:32:44;35.70;;;22.27;;
70927;SDS011;58587;53.034;18.576;2024-01-30T10:35:10;24.70;;;12.33;;
70927;SDS011;58587;53.034;18.576;2024-01-30T10:37:35;25.25;;;12.20;;
70927;SDS011;58587;53.034;18.576;2024-01-30T10:40:02;22.93;;;11.17;;
70927;SDS011;58587;53.034;18.576;2024-01-30T10:42:31;22.55;;;10.55;;
70927;SDS011;58587;53.034;18.576;2024-01-30T10:45:02;23.93;;;10.40;;
70927;SDS011;58587;53.034;18.576;2024-01-30T10:47:34;23.75;;;10.48;;
70927;SDS011;58587;53.034;18.576;2024-01-30T10:50:01;23.27;;;10.55;;
70927;SDS011;58587;53.034;18.576;2024-01-30T10:52:28;24.05;;;11.45;;
70927;SDS011;58587;53.034;18.576;2024-01-30T10:54:55;23.13;;;10.60;;
70927;SDS011;58587;53.034;18.576;2024-01-30T10:57:24;21.95;;;10.35;;
70927;SDS011;58587;53.034;18.576;2024-01-30T10:59:51;25.15;;;10.70;;
70927;SDS011;58587;53.034;18.576;2024-01-30T11:02:18;21.02;;;10.27;;
70927;SDS011;58587;53.034;18.576;2024-01-30T11:04:45;21.75;;;9.80;;
70927;SDS011;58587;53.034;18.576;2024-01-30T11:07:23;30.15;;;13.70;;
70927;SDS011;58587;53.034;18.576;2024-01-30T11:09:53;23.17;;;11.18;;
70927;SDS011;58587;53.034;18.576;2024-01-30T11:12:28;20.63;;;9.87;;
70927;SDS011;58587;53.034;18.576;2024-01-30T11:15:04;26.50;;;11.90;;
70927;SDS011;58587;53.034;18.576;2024-01-30T11:17:50;23.35;;;11.55;;
70927;SDS011;58587;53.034;18.576;2024-01-30T11:20:19;23.38;;;10.10;;
70927;SDS011;58587;53.034;18.576;2024-01-30T11:22:46;28.98;;;11.93;;
70927;SDS011;58587;53.034;18.576;2024-01-30T11:25:12;25.73;;;11.80;;
70927;SDS011;58587;53.034;18.576;2024-01-30T11:27:38;18.40;;;10.60;;
70927;SDS011;58587;53.034;18.576;2024-01-30T11:30:05;19.40;;;9.95;;
70927;SDS011;58587;53.034;18.576;2024-01-30T11:32:30;20.92;;;10.43;;
70927;SDS011;58587;53.034;18.576;2024-01-30T11:34:56;20.27;;;10.40;;
70927;SDS011;58587;53.034;18.576;2024-01-30T11:37:22;20.98;;;10.05;;
70927;SDS011;58587;53.034;18.576;2024-01-30T11:39:51;19.52;;;10.85;;
70927;SDS011;58587;53.034;18.576;2024-01-30T11:42:17;19.87;;;9.87;;
70927;SDS011;58587;53.034;18.576;2024-01-30T11:44:46;20.40;;;10.30;;
70927;SDS011;58587;53.034;18.576;2024-01-30T11:47:12;22.55;;;10.50;;
70927;SDS011;58587;53.034;18.576;2024-01-30T11:49:39;23.70;;;10.15;;
70927;SDS011;58587;53.034;18.576;2024-01-30T11:52:04;19.33;;;9.53;;
70927;SDS011;58587;53.034;18.576;2024-01-30T11:54:30;26.08;;;11.43;;
70927;SDS011;58587;53.034;18.576;2024-01-30T11:56:55;22.20;;;9.90;;
70927;SDS011;58587;53.034;18.576;2024-01-30T11:59:20;29.13;;;11.93;;
70927;SDS011;58587;53.034;18.576;2024-01-30T12:01:46;19.63;;;10.17;;
70927;SDS011;58587;53.034;18.576;2024-01-30T12:04:11;19.92;;;10.50;;
70927;SDS011;58587;53.034;18.576;2024-01-30T12:06:37;19.93;;;10.13;;
70927;SDS011;58587;53.034;18.576;2024-01-30T12:09:03;20.70;;;10.20;;
70927;SDS011;58587;53.034;18.576;2024-01-30T12:11:44;23.02;;;10.40;;
70927;SDS011;58587;53.034;18.576;2024-01-30T12:14:11;23.70;;;11.88;;
70927;SDS011;58587;53.034;18.576;2024-01-30T12:16:37;26.17;;;11.65;;
70927;SDS011;58587;53.034;18.576;2024-01-30T12:19:02;21.90;;;12.20;;
70927;SDS011;58587;53.034;18.576;2024-01-30T12:21:28;19.27;;;11.40;;
70927;SDS011;58587;53.034;18.576;2024-01-30T12:23:54;22.70;;;10.95;;
70927;SDS011;58587;53.034;18.576;2024-01-30T12:26:20;25.95;;;14.02;;
70927;SDS011;58587;53.034;18.576;2024-01-30T12:28:49;20.50;;;11.53;;
70927;SDS011;58587;53.034;18.576;2024-01-30T12:31:17;22.05;;;12.00;;
70927;SDS011;58587;53.034;18.576;2024-01-30T12:33:42;28.47;;;15.20;;
70927;SDS011;58587;53.034;18.576;2024-01-30T12:36:08;49.67;;;22.10;;
70927;SDS011;58587;53.034;18.576;2024-01-30T12:38:33;24.17;;;11.93;;
70927;SDS011;58587;53.034;18.576;2024-01-30T12:40:58;62.10;;;24.70;;
70927;SDS011;58587;53.034;18.576;2024-01-30T12:43:25;25.83;;;12.37;;
70927;SDS011;58587;53.034;18.576;2024-01-30T12:45:52;31.95;;;15.60;;
70927;SDS011;58587;53.034;18.576;2024-01-30T12:48:17;32.90;;;19.55;;
70927;SDS011;58587;53.034;18.576;2024-01-30T12:50:43;29.87;;;18.33;;
70927;SDS011;58587;53.034;18.576;2024-01-30T12:53:08;24.40;;;11.90;;
70927;SDS011;58587;53.034;18.576;2024-01-30T12:55:34;21.58;;;12.18;;
70927;SDS011;58587;53.034;18.576;2024-01-30T12:57:59;22.50;;;12.93;;
70927;SDS011;58587;53.034;18.576;2024-01-30T13:00:25;28.65;;;17.77;;
70927;SDS011;58587;53.034;18.576;2024-01-30T13:02:50;41.47;;;18.93;;
70927;SDS011;58587;53.034;18.576;2024-01-30T13:05:15;41.80;;;18.33;;
70927;SDS011;58587;53.034;18.576;2024-01-30T13:07:41;97.93;;;36.77;;
70927;SDS011;58587;53.034;18.576;2024-01-30T13:10:06;110.83;;;41.77;;
70927;SDS011;58587;53.034;18.576;2024-01-30T13:12:32;108.73;;;45.03;;
70927;SDS011;58587;53.034;18.576;2024-01-30T13:14:58;33.10;;;16.13;;
70927;SDS011;58587;53.034;18.576;2024-01-30T13:17:25;33.90;;;21.08;;
70927;SDS011;58587;53.034;18.576;2024-01-30T13:19:51;20.83;;;12.67;;
70927;SDS011;58587;53.034;18.576;2024-01-30T13:22:16;23.50;;;13.10;;
70927;SDS011;58587;53.034;18.576;2024-01-30T13:24:41;20.23;;;12.10;;
70927;SDS011;58587;53.034;18.576;2024-01-30T13:27:07;22.13;;;12.20;;
70927;SDS011;58587;53.034;18.576;2024-01-30T13:29:32;34.53;;;22.48;;
70927;SDS011;58587;53.034;18.576;2024-01-30T13:31:58;30.83;;;20.17;;
70927;SDS011;58587;53.034;18.576;2024-01-30T13:34:23;48.70;;;31.57;;
70927;SDS011;58587;53.034;18.576;2024-01-30T13:36:48;29.73;;;19.67;;
70927;SDS011;58587;53.034;18.576;2024-01-30T13:39:14;32.10;;;19.70;;
70927;SDS011;58587;53.034;18.576;2024-01-30T13:41:41;28.30;;;17.10;;
70927;SDS011;58587;53.034;18.576;2024-01-30T13:44:07;21.33;;;12.95;;
70927;SDS011;58587;53.034;18.576;2024-01-30T13:46:33;25.35;;;13.63;;
70927;SDS011;58587;53.034;18.576;2024-01-30T13:48:59;28.77;;;15.73;;
70927;SDS011;58587;53.034;18.576;2024-01-30T13:51:24;27.48;;;14.73;;
70927;SDS011;58587;53.034;18.576;2024-01-30T13:53:50;24.17;;;13.73;;
70927;SDS011;58587;53.034;18.576;2024-01-30T13:56:15;24.17;;;14.20;;
70927;SDS011;58587;53.034;18.576;2024-01-30T13:58:40;27.37;;;14.57;;
70927;SDS011;58587;53.034;18.576;2024-01-30T14:01:06;29.37;;;15.13;;